createdAt,value
2018-06-11T00:00:35.521Z,14.77
2018-06-11T00:03:10.720Z,15.10
2018-06-11T00:05:45.589Z,14.07
2018-06-11T00:08:20.738Z,14.43
2018-06-11T00:10:55.689Z,13.93
2018-06-11T00:13:30.153Z,15.80
2018-06-11T00:16:05.298Z,14.83
2018-06-11T00:18:39.904Z,15.57
2018-06-11T00:21:15.026Z,15.70
2018-06-11T00:23:49.497Z,13.33
2018-06-11T00:26:24.193Z,14.50
2018-06-11T00:28:58.429Z,13.40
2018-06-11T00:31:33.562Z,14.40
2018-06-11T00:34:08.180Z,15.00
2018-06-11T00:36:43.172Z,14.73
2018-06-11T00:39:18.457Z,15.40
2018-06-11T00:41:53.509Z,14.90
2018-06-11T00:44:28.957Z,15.70
2018-06-11T00:47:03.530Z,14.07
2018-06-11T00:49:38.149Z,15.93
2018-06-11T00:52:13.450Z,14.70
2018-06-11T00:54:48.623Z,15.80
2018-06-11T00:57:23.322Z,15.27
2018-06-11T00:59:58.153Z,16.50
2018-06-11T01:02:34.064Z,15.80
2018-06-11T01:05:09.688Z,15.10
2018-06-11T01:07:44.848Z,14.97
2018-06-11T01:10:19.334Z,14.13
2018-06-11T01:12:54.434Z,16.00
2018-06-11T01:15:29.170Z,15.53
2018-06-11T01:18:04.221Z,16.63
2018-06-11T01:20:39.466Z,16.40
2018-06-11T01:23:14.793Z,17.40
2018-06-11T01:25:49.514Z,17.50
2018-06-11T01:28:24.714Z,15.77
2018-06-11T01:31:00.600Z,17.13
2018-06-11T01:33:36.048Z,17.50
2018-06-11T01:36:11.565Z,17.50
2018-06-11T01:38:46.105Z,16.80
2018-06-11T01:41:20.858Z,16.30
2018-06-11T01:43:55.937Z,17.37
2018-06-11T01:46:31.021Z,16.30
2018-06-11T01:49:05.941Z,16.67
2018-06-11T01:51:41.320Z,15.80
2018-06-11T01:54:15.998Z,14.00
2018-06-11T01:56:51.393Z,11.80
2018-06-11T01:59:25.886Z,13.00
2018-06-11T02:02:00.282Z,12.97
2018-06-11T02:04:35.931Z,12.13
2018-06-11T02:07:10.884Z,11.97
2018-06-11T02:09:45.522Z,12.73
2018-06-11T02:12:21.504Z,11.57
2018-06-11T02:14:56.304Z,12.33
2018-06-11T02:17:31.074Z,12.00
2018-06-11T02:20:06.090Z,10.87
2018-06-11T02:22:41.116Z,13.30
2018-06-11T02:25:15.433Z,12.20
2018-06-11T02:27:50.448Z,12.90
2018-06-11T02:30:24.723Z,12.50
2018-06-11T02:32:59.046Z,12.87
2018-06-11T02:35:34.081Z,14.60
2018-06-11T02:38:08.291Z,13.23
2018-06-11T02:40:43.288Z,12.63
2018-06-11T02:43:18.492Z,12.07
2018-06-11T02:45:53.131Z,11.80
2018-06-11T02:48:28.397Z,11.47
2018-06-11T02:51:02.917Z,11.33
2018-06-11T02:53:37.898Z,12.40
2018-06-11T02:56:13.400Z,13.23
2018-06-11T02:58:48.055Z,13.33
2018-06-11T03:01:22.950Z,14.10
2018-06-11T03:03:57.816Z,13.00
2018-06-11T03:06:32.113Z,13.73
2018-06-11T03:09:07.590Z,14.20
2018-06-11T03:11:42.531Z,13.80
2018-06-11T03:14:17.444Z,13.83
2018-06-11T03:16:52.509Z,14.00
2018-06-11T03:19:27.419Z,12.50
2018-06-11T03:22:01.834Z,14.00
2018-06-11T03:24:36.796Z,11.90
2018-06-11T03:27:12.098Z,13.50
2018-06-11T03:29:47.273Z,12.70
2018-06-11T03:32:22.469Z,11.47
2018-06-11T03:34:57.554Z,11.60
2018-06-11T03:37:32.240Z,11.57
2018-06-11T03:40:07.341Z,10.83
2018-06-11T03:42:42.184Z,13.27
2018-06-11T03:45:17.390Z,11.50
2018-06-11T03:47:52.884Z,12.73
2018-06-11T03:50:28.457Z,11.27
2018-06-11T03:53:02.982Z,10.67
2018-06-11T03:55:37.913Z,12.40
2018-06-11T03:58:12.633Z,11.20
2018-06-11T04:00:47.772Z,11.10
2018-06-11T04:03:22.797Z,12.00
2018-06-11T04:05:58.033Z,10.23
2018-06-11T04:08:34.129Z,9.70
2018-06-11T04:11:08.731Z,10.97
2018-06-11T04:13:45.286Z,9.80
2018-06-11T04:16:21.343Z,9.60
2018-06-11T04:18:56.125Z,10.03
2018-06-11T04:21:30.789Z,9.13
2018-06-11T04:24:05.745Z,9.17
2018-06-11T04:26:40.886Z,9.57
2018-06-11T04:29:15.407Z,9.07
2018-06-11T04:31:50.714Z,10.40
2018-06-11T04:34:25.833Z,9.63
2018-06-11T04:37:00.613Z,9.60
2018-06-11T04:39:35.456Z,10.50
2018-06-11T04:42:10.907Z,9.07
2018-06-11T04:44:45.782Z,10.83
2018-06-11T04:47:20.780Z,10.27
2018-06-11T04:49:55.709Z,9.37
2018-06-11T04:52:30.941Z,9.20
2018-06-11T04:55:05.693Z,9.57
2018-06-11T04:57:40.685Z,10.40
2018-06-11T05:00:16.418Z,8.70
2018-06-11T05:02:50.894Z,9.93
2018-06-11T05:05:25.706Z,9.87
2018-06-11T05:08:00.540Z,11.20
2018-06-11T05:10:35.885Z,10.40
2018-06-11T05:13:10.722Z,9.40
2018-06-11T05:15:45.565Z,9.57
2018-06-11T05:18:20.506Z,9.30
2018-06-11T05:20:55.443Z,10.63
2018-06-11T05:23:30.462Z,11.07
2018-06-11T05:26:05.445Z,9.47
2018-06-11T05:28:40.797Z,9.70
2018-06-11T05:31:15.678Z,9.83
2018-06-11T05:33:51.043Z,9.23
2018-06-11T05:36:26.445Z,10.20
2018-06-11T05:39:01.369Z,9.60
2018-06-11T05:41:36.605Z,9.27
2018-06-11T05:44:11.365Z,10.57
2018-06-11T05:46:46.214Z,9.03
2018-06-11T05:49:21.218Z,9.77
2018-06-11T05:51:56.228Z,8.80
2018-06-11T05:54:30.782Z,10.27
2018-06-11T05:57:05.929Z,8.90
2018-06-11T05:59:41.001Z,10.47
2018-06-11T06:02:16.053Z,10.07
2018-06-11T06:04:51.253Z,9.63
2018-06-11T06:07:25.995Z,9.73
2018-06-11T06:10:00.963Z,9.90
2018-06-11T06:12:35.258Z,9.93
2018-06-11T06:15:09.878Z,9.20
2018-06-11T06:17:44.375Z,9.80
2018-06-11T06:20:18.938Z,9.67
2018-06-11T06:22:53.708Z,10.20
2018-06-11T06:25:28.637Z,8.87
2018-06-11T06:28:04.007Z,8.37
2018-06-11T06:30:39.552Z,9.33
2018-06-11T06:33:14.949Z,7.77
2018-06-11T06:35:49.710Z,8.90
2018-06-11T06:38:24.674Z,7.47
2018-06-11T06:40:59.817Z,7.47
2018-06-11T06:43:34.249Z,7.47
2018-06-11T06:46:08.465Z,7.20
2018-06-11T06:48:43.597Z,8.60
2018-06-11T06:51:17.797Z,7.23
2018-06-11T06:53:52.398Z,7.40
2018-06-11T06:56:26.842Z,7.13
2018-06-11T06:59:01.989Z,7.10
2018-06-11T07:01:36.509Z,6.40
2018-06-11T07:04:11.648Z,6.70
2018-06-11T07:06:46.960Z,6.03
2018-06-11T07:09:21.497Z,6.10
2018-06-11T07:11:56.354Z,6.77
2018-06-11T07:14:30.613Z,6.20
2018-06-11T07:17:05.528Z,5.80
2018-06-11T07:19:40.534Z,6.07
2018-06-11T07:22:15.865Z,5.80
2018-06-11T07:24:50.601Z,6.80
2018-06-11T07:27:25.941Z,6.90
2018-06-11T07:30:00.445Z,6.97
2018-06-11T07:32:35.043Z,6.80
2018-06-11T07:35:09.505Z,6.77
2018-06-11T07:37:44.746Z,6.40
2018-06-11T07:40:19.829Z,6.10
2018-06-11T07:42:54.629Z,5.83
2018-06-11T07:45:29.407Z,5.60
2018-06-11T07:48:04.377Z,6.67
2018-06-11T07:50:39.717Z,6.50
2018-06-11T07:53:14.265Z,6.27
2018-06-11T07:55:48.765Z,6.67
2018-06-11T07:58:24.008Z,6.70
2018-06-11T08:00:59.437Z,6.53
2018-06-11T08:03:33.973Z,6.57
2018-06-11T08:06:08.692Z,7.80
2018-06-11T08:08:43.804Z,7.37
2018-06-11T08:11:18.922Z,14.70
2018-06-11T08:13:53.615Z,6.97
2018-06-11T08:16:28.390Z,7.50
2018-06-11T08:19:03.162Z,8.67
2018-06-11T08:21:37.861Z,9.47
2018-06-11T08:24:12.025Z,8.83
2018-06-11T08:26:47.050Z,8.77
2018-06-11T08:29:21.951Z,9.20
2018-06-11T08:31:57.067Z,9.00
2018-06-11T08:34:32.501Z,9.97
2018-06-11T08:37:07.379Z,9.90
2018-06-11T08:39:43.010Z,10.30
2018-06-11T08:42:17.686Z,10.53
2018-06-11T08:44:52.005Z,13.17
2018-06-11T08:47:26.764Z,12.00
2018-06-11T08:50:01.435Z,12.23
2018-06-11T08:52:36.698Z,12.00
2018-06-11T08:55:11.861Z,12.93
2018-06-11T08:57:46.989Z,12.57
2018-06-11T09:00:21.910Z,11.70
2018-06-11T09:02:57.321Z,11.53
2018-06-11T09:05:32.434Z,9.73
2018-06-11T09:08:07.788Z,9.80
2018-06-11T09:10:42.344Z,10.00
2018-06-11T09:13:16.965Z,11.30
2018-06-11T09:15:52.429Z,11.17
2018-06-11T09:18:27.173Z,10.87
2018-06-11T09:21:01.923Z,10.90
2018-06-11T09:23:36.658Z,10.53
2018-06-11T09:26:11.859Z,10.63
2018-06-11T09:28:47.078Z,11.10
2018-06-11T09:31:21.517Z,12.30
2018-06-11T09:33:56.785Z,10.53
2018-06-11T09:36:31.422Z,11.37
2018-06-11T09:39:08.446Z,10.90
2018-06-11T09:41:42.668Z,13.10
2018-06-11T09:44:17.267Z,11.63
2018-06-11T09:46:52.500Z,10.40
2018-06-11T09:49:27.495Z,10.93
2018-06-11T09:52:02.261Z,10.23
2018-06-11T09:54:37.077Z,8.90
2018-06-11T09:57:11.613Z,9.93
2018-06-11T09:59:46.665Z,9.40
2018-06-11T10:02:22.924Z,10.07
2018-06-11T10:04:57.160Z,10.30
2018-06-11T10:07:31.839Z,9.70
2018-06-11T10:10:07.268Z,9.27
2018-06-11T10:12:41.867Z,9.10
2018-06-11T10:15:17.185Z,9.13
2018-06-11T10:17:52.546Z,9.90
2018-06-11T10:20:27.933Z,9.00
2018-06-11T10:23:02.605Z,9.80
2018-06-11T10:25:36.985Z,9.30
2018-06-11T10:28:11.669Z,8.80
2018-06-11T10:30:46.724Z,8.77
2018-06-11T10:33:21.790Z,9.17
2018-06-11T10:35:56.777Z,9.57
2018-06-11T10:38:31.731Z,9.20
2018-06-11T10:41:06.561Z,9.10
2018-06-11T10:43:41.594Z,8.77
2018-06-11T10:46:16.533Z,8.80
2018-06-11T10:48:51.989Z,8.77
2018-06-11T10:51:26.770Z,10.80
2018-06-11T10:54:01.348Z,8.37
2018-06-11T10:56:35.966Z,10.10
2018-06-11T10:59:10.956Z,8.93
2018-06-11T11:01:45.326Z,9.33
2018-06-11T11:04:20.193Z,9.43
2018-06-11T11:06:55.238Z,9.70
2018-06-11T11:09:30.201Z,10.40
2018-06-11T11:12:04.943Z,10.10
2018-06-11T11:14:40.034Z,12.30
2018-06-11T11:17:15.270Z,10.27
2018-06-11T11:19:49.934Z,10.77
2018-06-11T11:22:25.043Z,12.03
2018-06-11T11:25:00.260Z,11.83
2018-06-11T11:27:35.381Z,9.80
2018-06-11T11:30:10.454Z,9.50
2018-06-11T11:32:45.209Z,9.20
2018-06-11T11:35:20.202Z,9.77
2018-06-11T11:37:54.845Z,9.63
2018-06-11T11:40:30.299Z,11.20
2018-06-11T11:43:04.873Z,11.50
2018-06-11T11:45:39.609Z,11.63
2018-06-11T11:48:14.373Z,10.70
2018-06-11T11:50:49.564Z,10.10
2018-06-11T11:53:24.178Z,9.50
2018-06-11T11:55:58.697Z,9.77
2018-06-11T11:58:33.668Z,9.13
2018-06-11T12:01:08.369Z,10.50
2018-06-11T12:03:43.116Z,9.83
2018-06-11T12:06:18.053Z,11.70
2018-06-11T12:08:53.325Z,11.07
2018-06-11T12:11:27.770Z,10.90
2018-06-11T12:14:03.223Z,10.93
2018-06-11T12:16:38.432Z,10.83
2018-06-11T12:19:13.703Z,9.83
2018-06-11T12:21:48.735Z,11.03
2018-06-11T12:24:23.589Z,9.77
2018-06-11T12:26:58.886Z,10.50
2018-06-11T12:29:33.893Z,9.40
2018-06-11T12:32:08.929Z,9.67
2018-06-11T12:34:43.683Z,10.93
2018-06-11T12:37:18.077Z,9.77
2018-06-11T12:39:53.330Z,10.77
2018-06-11T12:42:28.481Z,9.47
2018-06-11T12:45:03.429Z,10.40
2018-06-11T12:47:39.013Z,9.93
2018-06-11T12:50:14.278Z,8.17
2018-06-11T12:52:48.989Z,8.90
2018-06-11T12:55:23.773Z,9.13
2018-06-11T12:57:58.714Z,8.70
2018-06-11T13:00:33.440Z,8.27
2018-06-11T13:03:08.065Z,8.13
2018-06-11T13:05:43.632Z,9.57
2018-06-11T13:08:18.096Z,8.10
2018-06-11T13:10:53.353Z,9.20
2018-06-11T13:13:28.743Z,10.27
2018-06-11T13:16:03.483Z,9.77
2018-06-11T13:18:38.154Z,8.80
2018-06-11T13:21:12.973Z,10.17
2018-06-11T13:23:48.049Z,9.43
2018-06-11T13:26:22.487Z,10.50
2018-06-11T13:28:57.741Z,10.50
2018-06-11T13:31:32.162Z,10.20
2018-06-11T13:34:07.201Z,10.73
2018-06-11T13:36:42.627Z,11.00
2018-06-11T13:39:17.781Z,9.80
2018-06-11T13:41:52.818Z,9.90
2018-06-11T13:44:27.658Z,11.17
2018-06-11T13:47:02.485Z,10.80
2018-06-11T13:49:36.702Z,11.57
2018-06-11T13:52:12.005Z,10.10
2018-06-11T13:54:46.317Z,11.07
2018-06-11T13:57:21.502Z,10.70
2018-06-11T13:59:57.085Z,10.80
2018-06-11T14:02:31.841Z,11.67
2018-06-11T14:05:06.965Z,11.10
2018-06-11T14:07:42.035Z,10.27
2018-06-11T14:10:16.990Z,12.33
2018-06-11T14:12:51.968Z,10.57
2018-06-11T14:15:27.145Z,9.63
2018-06-11T14:18:02.170Z,8.53
2018-06-11T14:20:37.242Z,9.17
2018-06-11T14:23:12.304Z,9.30
2018-06-11T14:25:47.286Z,7.80
2018-06-11T14:28:22.100Z,9.63
2018-06-11T14:30:56.670Z,9.57
2018-06-11T14:33:31.894Z,9.10
2018-06-11T14:36:06.987Z,8.97
2018-06-11T14:38:41.298Z,9.90
2018-06-11T14:43:57.855Z,9.47
2018-06-11T14:46:32.358Z,9.37
2018-06-11T14:49:07.729Z,9.43
2018-06-11T14:51:42.098Z,9.10
2018-06-11T14:54:16.874Z,8.93
2018-06-11T14:56:51.793Z,9.30
2018-06-11T14:59:26.665Z,7.30
2018-06-11T15:02:02.089Z,8.73
2018-06-11T15:04:36.673Z,9.60
2018-06-11T15:07:11.473Z,9.23
2018-06-11T15:09:46.172Z,7.63
2018-06-11T15:12:21.542Z,7.67
2018-06-11T15:14:55.818Z,7.93
2018-06-11T15:17:30.366Z,7.73
2018-06-11T15:20:05.553Z,7.37
2018-06-11T15:22:40.657Z,7.83
2018-06-11T15:25:15.601Z,8.90
2018-06-11T15:27:50.442Z,7.30
2018-06-11T15:30:25.475Z,5.73
2018-06-11T15:33:00.202Z,5.90
2018-06-11T15:35:35.099Z,5.47
2018-06-11T15:38:09.333Z,6.77
2018-06-11T15:40:44.070Z,7.37
2018-06-11T15:43:19.333Z,8.00
2018-06-11T15:45:53.791Z,7.13
2018-06-11T15:48:28.590Z,7.40
2018-06-11T15:51:02.889Z,7.30
2018-06-11T15:53:38.323Z,7.40
2018-06-11T15:56:13.450Z,6.80
2018-06-11T15:58:48.608Z,6.90
2018-06-11T16:01:23.206Z,6.37
2018-06-11T16:03:58.082Z,5.83
2018-06-11T16:06:33.061Z,6.30
2018-06-11T16:09:08.326Z,6.40
2018-06-11T16:11:43.075Z,6.10
2018-06-11T16:14:18.197Z,5.93
2018-06-11T16:16:53.226Z,6.27
2018-06-11T16:19:28.073Z,5.80
2018-06-11T16:22:02.593Z,6.57
2018-06-11T16:24:37.585Z,5.40
2018-06-11T16:27:12.546Z,6.50
2018-06-11T16:29:47.665Z,6.00
2018-06-11T16:32:22.697Z,6.80
2018-06-11T16:34:58.067Z,7.93
2018-06-11T16:37:32.491Z,6.93
2018-06-11T16:40:07.048Z,7.70
2018-06-11T16:42:41.561Z,8.20
2018-06-11T16:45:16.793Z,6.90
2018-06-11T16:47:51.737Z,7.20
2018-06-11T16:50:26.155Z,8.73
2018-06-11T16:53:01.079Z,7.20
2018-06-11T16:55:35.600Z,7.50
2018-06-11T16:58:10.856Z,7.90
2018-06-11T17:00:45.672Z,8.73
2018-06-11T17:03:20.650Z,6.77
2018-06-11T17:05:55.685Z,6.30
2018-06-11T17:08:29.960Z,6.00
2018-06-11T17:11:05.080Z,5.70
2018-06-11T17:13:39.528Z,6.50
2018-06-11T17:16:14.536Z,6.87
2018-06-11T17:18:49.177Z,6.10
2018-06-11T17:21:24.055Z,6.30
2018-06-11T17:23:58.291Z,5.80
2018-06-11T17:26:33.376Z,6.43
2018-06-11T17:29:07.697Z,5.67
2018-06-11T17:31:42.426Z,5.93
2018-06-11T17:34:17.857Z,6.03
2018-06-11T17:36:53.014Z,5.97
2018-06-11T17:39:28.034Z,5.93
2018-06-11T17:42:03.074Z,5.90
2018-06-11T17:44:38.104Z,6.73
2018-06-11T17:47:13.014Z,8.37
2018-06-11T17:49:47.510Z,7.93
2018-06-11T17:52:23.021Z,7.17
2018-06-11T17:54:57.418Z,8.03
2018-06-11T17:57:31.765Z,7.63
2018-06-11T18:00:06.800Z,8.33
2018-06-11T18:02:41.754Z,8.50
2018-06-11T18:05:16.478Z,8.27
2018-06-11T18:07:51.610Z,7.50
2018-06-11T18:10:26.837Z,6.53
2018-06-11T18:13:01.773Z,7.03
2018-06-11T18:15:36.873Z,7.23
2018-06-11T18:21:09.358Z,6.20
2018-06-11T18:23:44.205Z,7.00
2018-06-11T18:26:18.467Z,6.33
2018-06-11T18:28:53.656Z,5.93
2018-06-11T18:31:28.665Z,6.43
2018-06-11T18:34:03.893Z,7.10
2018-06-11T18:36:38.985Z,6.70
2018-06-11T18:39:14.358Z,7.70
2018-06-11T18:41:50.150Z,7.63
2018-06-11T18:44:25.071Z,7.60
2018-06-11T18:47:00.280Z,7.53
2018-06-11T18:49:35.121Z,8.40
2018-06-11T18:52:10.232Z,8.43
2018-06-11T18:54:45.508Z,8.07
2018-06-11T18:57:20.197Z,7.70
2018-06-11T18:59:55.255Z,9.07
2018-06-11T19:02:30.168Z,8.60
2018-06-11T19:05:05.056Z,8.20
2018-06-11T19:07:40.280Z,9.30
2018-06-11T19:10:15.237Z,8.93
2018-06-11T19:12:50.357Z,8.80
2018-06-11T19:15:25.579Z,10.33
2018-06-11T19:18:00.211Z,9.63
2018-06-11T19:20:35.312Z,9.13
2018-06-11T19:23:10.359Z,8.83
2018-06-11T19:25:45.072Z,8.47
2018-06-11T19:28:19.684Z,8.50
2018-06-11T19:30:54.084Z,8.30
2018-06-11T19:33:28.417Z,9.23
2018-06-11T19:36:02.825Z,8.20
2018-06-11T19:38:37.955Z,9.00
2018-06-11T19:41:13.048Z,9.50
2018-06-11T19:43:48.136Z,9.47
2018-06-11T19:46:23.390Z,9.07
2018-06-11T19:48:57.753Z,9.13
2018-06-11T19:51:33.032Z,9.17
2018-06-11T19:54:08.256Z,9.37
2018-06-11T19:56:43.198Z,8.73
2018-06-11T19:59:18.040Z,8.60
2018-06-11T20:01:52.256Z,9.57
2018-06-11T20:04:26.687Z,9.77
2018-06-11T20:07:01.127Z,9.57
2018-06-11T20:09:36.009Z,9.33
2018-06-11T20:12:11.389Z,9.20
2018-06-11T20:14:45.981Z,9.67
2018-06-11T20:17:20.872Z,8.83
2018-06-11T20:19:55.404Z,10.10
2018-06-11T20:22:29.947Z,10.27
2018-06-11T20:25:05.377Z,9.90
2018-06-11T20:27:40.398Z,10.13
2018-06-11T20:30:14.884Z,10.50
2018-06-11T20:32:50.393Z,10.03
2018-06-11T20:35:24.806Z,9.87
2018-06-11T20:37:59.908Z,11.40
2018-06-11T20:40:34.753Z,11.00
2018-06-11T20:43:09.535Z,9.70
2018-06-11T20:45:44.213Z,10.80
2018-06-11T20:48:19.488Z,10.80
2018-06-11T20:50:54.503Z,10.77
2018-06-11T20:53:29.608Z,11.60
2018-06-11T20:56:05.025Z,10.50
2018-06-11T20:58:40.540Z,11.30
2018-06-11T21:01:16.627Z,10.93
2018-06-11T21:03:51.215Z,11.40
2018-06-11T21:06:25.865Z,10.53
2018-06-11T21:09:01.331Z,12.30
2018-06-11T21:11:36.167Z,10.60
2018-06-11T21:14:11.504Z,11.53
2018-06-11T21:16:46.909Z,12.90
2018-06-11T21:19:21.544Z,11.60
2018-06-11T21:21:55.999Z,10.50
2018-06-11T21:24:30.681Z,11.03
2018-06-11T21:27:05.876Z,10.20
2018-06-11T21:29:41.421Z,10.40
2018-06-11T21:32:18.047Z,10.80
2018-06-11T21:34:53.020Z,11.50
2018-06-11T21:37:28.425Z,11.10
2018-06-11T21:40:03.481Z,10.57
2018-06-11T21:42:38.269Z,10.63
2018-06-11T21:45:13.277Z,11.17
2018-06-11T21:47:47.642Z,9.97
2018-06-11T21:50:22.149Z,10.60
2018-06-11T21:52:56.796Z,10.30
2018-06-11T21:55:31.128Z,10.77
2018-06-11T21:58:06.252Z,9.80
2018-06-11T22:00:40.967Z,10.33
2018-06-11T22:03:16.558Z,10.60
2018-06-11T22:05:51.244Z,10.37
2018-06-11T22:08:25.504Z,11.10
2018-06-11T22:11:00.405Z,9.50
2018-06-11T22:13:35.269Z,11.27
2018-06-11T22:16:10.462Z,10.40
2018-06-11T22:18:44.865Z,10.30
2018-06-11T22:21:19.304Z,10.97
2018-06-11T22:23:53.633Z,10.87
2018-06-11T22:26:27.992Z,9.57
2018-06-11T22:29:02.597Z,10.60
2018-06-11T22:31:37.113Z,11.97
2018-06-11T22:34:11.669Z,12.30
2018-06-11T22:36:46.443Z,12.07
2018-06-11T22:39:21.000Z,11.20
2018-06-11T22:41:55.697Z,10.80
2018-06-11T22:44:30.936Z,11.20
2018-06-11T22:47:06.161Z,11.47
2018-06-11T22:49:41.135Z,11.77
2018-06-11T22:52:15.800Z,13.13
2018-06-11T22:54:50.593Z,11.60
2018-06-11T22:57:25.484Z,11.93
2018-06-11T22:59:59.836Z,11.23
2018-06-11T23:02:34.785Z,12.33
2018-06-11T23:05:09.060Z,12.20
2018-06-11T23:07:43.344Z,11.90
2018-06-11T23:10:18.496Z,12.13
2018-06-11T23:12:53.053Z,11.77
2018-06-11T23:15:27.300Z,12.80
2018-06-11T23:18:02.496Z,12.40
2018-06-11T23:20:37.684Z,13.03
2018-06-11T23:23:12.717Z,12.60
2018-06-11T23:25:47.637Z,12.63
2018-06-11T23:28:22.893Z,12.67
2018-06-11T23:30:57.145Z,12.93
2018-06-11T23:33:31.541Z,13.80
2018-06-11T23:36:07.081Z,13.60
2018-06-11T23:38:41.922Z,13.37
2018-06-11T23:41:16.845Z,13.77
2018-06-11T23:43:51.712Z,13.83
2018-06-11T23:46:26.197Z,13.53
2018-06-11T23:49:00.701Z,13.83
2018-06-11T23:51:35.713Z,14.73
2018-06-11T23:54:10.177Z,13.60
2018-06-11T23:56:45.046Z,13.60
2018-06-11T23:59:19.236Z,14.87
